sensor_id;sensor_type;location;lat;lon;timestamp;pressure;altitude;pressure_sealevel;temperature;humidity
68807;BME280;55800;54.272;18.558;2023-07-31T00:01:02;100211.66;;;17.41;67.27
68807;BME280;55800;54.272;18.558;2023-07-31T00:03:32;100211.53;;;17.42;67.01
68807;BME280;55800;54.272;18.558;2023-07-31T00:06:02;100225.41;;;17.38;68.08
68807;BME280;55800;54.272;18.558;2023-07-31T00:08:32;100221.22;;;17.34;67.20
68807;BME280;55800;54.272;18.558;2023-07-31T00:11:00;100217.97;;;17.29;67.69
68807;BME280;55800;54.272;18.558;2023-07-31T00:13:30;100216.00;;;17.20;66.96
68807;BME280;55800;54.272;18.558;2023-07-31T00:15:59;100217.44;;;17.12;67.47
68807;BME280;55800;54.272;18.558;2023-07-31T00:18:29;100217.56;;;17.11;66.27
68807;BME280;55800;54.272;18.558;2023-07-31T00:20:58;100221.09;;;17.11;68.42
68807;BME280;55800;54.272;18.558;2023-07-31T00:23:28;100223.19;;;17.08;68.23
68807;BME280;55800;54.272;18.558;2023-07-31T00:25:58;100211.97;;;17.01;66.27
68807;BME280;55800;54.272;18.558;2023-07-31T00:28:27;100218.22;;;17.02;67.18
68807;BME280;55800;54.272;18.558;2023-07-31T00:30:57;100207.78;;;16.97;66.97
68807;BME280;55800;54.272;18.558;2023-07-31T00:33:27;100209.94;;;16.92;66.69
68807;BME280;55800;54.272;18.558;2023-07-31T00:35:56;100208.34;;;16.90;66.48
68807;BME280;55800;54.272;18.558;2023-07-31T00:38:26;100200.69;;;16.84;67.33
68807;BME280;55800;54.272;18.558;2023-07-31T00:40:57;100197.16;;;16.83;66.71
68807;BME280;55800;54.272;18.558;2023-07-31T00:43:26;100198.09;;;16.82;68.57
68807;BME280;55800;54.272;18.558;2023-07-31T00:45:55;100194.94;;;16.88;66.54
68807;BME280;55800;54.272;18.558;2023-07-31T00:48:25;100191.34;;;16.77;66.62
68807;BME280;55800;54.272;18.558;2023-07-31T00:50:56;100198.03;;;16.71;65.92
68807;BME280;55800;54.272;18.558;2023-07-31T00:53:26;100185.53;;;16.70;65.13
68807;BME280;55800;54.272;18.558;2023-07-31T00:55:58;100189.44;;;16.66;66.66
68807;BME280;55800;54.272;18.558;2023-07-31T00:58:28;100177.13;;;16.62;65.58
68807;BME280;55800;54.272;18.558;2023-07-31T01:00:57;100177.34;;;16.59;65.42
68807;BME280;55800;54.272;18.558;2023-07-31T01:03:27;100169.13;;;16.61;64.29
68807;BME280;55800;54.272;18.558;2023-07-31T01:05:58;100169.59;;;16.55;66.29
68807;BME280;55800;54.272;18.558;2023-07-31T01:08:36;100167.88;;;16.54;64.34
68807;BME280;55800;54.272;18.558;2023-07-31T01:11:15;100164.53;;;16.50;63.81
68807;BME280;55800;54.272;18.558;2023-07-31T01:13:45;100156.44;;;16.50;63.43
68807;BME280;55800;54.272;18.558;2023-07-31T01:16:14;100163.84;;;16.47;63.30
68807;BME280;55800;54.272;18.558;2023-07-31T01:18:44;100164.44;;;16.39;64.31
68807;BME280;55800;54.272;18.558;2023-07-31T01:21:19;100161.19;;;16.34;63.39
68807;BME280;55800;54.272;18.558;2023-07-31T01:24:20;100148.91;;;16.30;63.12
68807;BME280;55800;54.272;18.558;2023-07-31T01:26:55;100163.16;;;16.19;65.73
68807;BME280;55800;54.272;18.558;2023-07-31T01:29:32;100162.94;;;16.10;66.46
68807;BME280;55800;54.272;18.558;2023-07-31T01:32:04;100175.47;;;16.11;65.79
68807;BME280;55800;54.272;18.558;2023-07-31T01:34:35;100179.38;;;16.07;65.46
68807;BME280;55800;54.272;18.558;2023-07-31T01:37:05;100176.13;;;16.02;66.46
68807;BME280;55800;54.272;18.558;2023-07-31T01:39:35;100179.91;;;15.99;66.35
68807;BME280;55800;54.272;18.558;2023-07-31T01:42:06;100181.97;;;15.96;67.79
68807;BME280;55800;54.272;18.558;2023-07-31T01:44:35;100181.97;;;15.96;67.96
68807;BME280;55800;54.272;18.558;2023-07-31T01:47:05;100186.06;;;15.89;68.17
68807;BME280;55800;54.272;18.558;2023-07-31T01:49:35;100176.56;;;15.83;67.24
68807;BME280;55800;54.272;18.558;2023-07-31T01:52:05;100182.28;;;15.79;67.30
68807;BME280;55800;54.272;18.558;2023-07-31T01:54:35;100179.03;;;15.74;67.99
68807;BME280;55800;54.272;18.558;2023-07-31T01:57:06;100173.75;;;15.72;67.27
68807;BME280;55800;54.272;18.558;2023-07-31T01:59:36;100172.88;;;15.72;68.29
68807;BME280;55800;54.272;18.558;2023-07-31T02:02:05;100175.69;;;15.70;68.69
68807;BME280;55800;54.272;18.558;2023-07-31T02:04:35;100182.41;;;15.65;67.90
68807;BME280;55800;54.272;18.558;2023-07-31T02:07:04;100183.22;;;15.65;69.29
68807;BME280;55800;54.272;18.558;2023-07-31T02:09:34;100189.91;;;15.59;68.15
68807;BME280;55800;54.272;18.558;2023-07-31T02:12:03;100192.06;;;15.54;69.81
68807;BME280;55800;54.272;18.558;2023-07-31T02:14:34;100196.81;;;15.51;68.62
68807;BME280;55800;54.272;18.558;2023-07-31T02:17:04;100196.28;;;15.46;67.70
68807;BME280;55800;54.272;18.558;2023-07-31T02:19:34;100180.41;;;15.41;67.70
68807;BME280;55800;54.272;18.558;2023-07-31T02:22:03;100188.47;;;15.41;69.54
68807;BME280;55800;54.272;18.558;2023-07-31T02:24:33;100180.41;;;15.41;68.98
68807;BME280;55800;54.272;18.558;2023-07-31T02:27:02;100182.53;;;15.36;67.10
68807;BME280;55800;54.272;18.558;2023-07-31T02:29:32;100186.41;;;15.32;66.94
68807;BME280;55800;54.272;18.558;2023-07-31T02:32:03;100191.97;;;15.29;67.04
68807;BME280;55800;54.272;18.558;2023-07-31T02:34:33;100189.72;;;15.23;69.07
68807;BME280;55800;54.272;18.558;2023-07-31T02:37:02;100186.91;;;15.25;68.95
68807;BME280;55800;54.272;18.558;2023-07-31T02:39:32;100187.78;;;15.25;68.85
68807;BME280;55800;54.272;18.558;2023-07-31T02:42:01;100185.31;;;15.22;69.27
68807;BME280;55800;54.272;18.558;2023-07-31T02:44:30;100187.88;;;15.24;68.08
68807;BME280;55800;54.272;18.558;2023-07-31T02:46:59;100189.72;;;15.23;69.30
68807;BME280;55800;54.272;18.558;2023-07-31T02:49:30;100200.38;;;15.25;70.67
68807;BME280;55800;54.272;18.558;2023-07-31T02:51:59;100193.47;;;15.21;69.49
68807;BME280;55800;54.272;18.558;2023-07-31T02:54:29;100195.50;;;15.17;70.41
68807;BME280;55800;54.272;18.558;2023-07-31T02:56:58;100196.88;;;15.10;70.33
68807;BME280;55800;54.272;18.558;2023-07-31T02:59:29;100191.91;;;15.04;71.37
68807;BME280;55800;54.272;18.558;2023-07-31T03:01:58;100206.56;;;15.00;70.83
68807;BME280;55800;54.272;18.558;2023-07-31T03:04:27;100204.84;;;14.99;71.51
68807;BME280;55800;54.272;18.558;2023-07-31T03:06:58;100213.66;;;15.01;72.02
68807;BME280;55800;54.272;18.558;2023-07-31T03:09:27;100211.75;;;15.03;71.03
68807;BME280;55800;54.272;18.558;2023-07-31T03:11:56;100215.78;;;14.96;71.76
68807;BME280;55800;54.272;18.558;2023-07-31T03:14:26;100221.94;;;14.98;71.26
68807;BME280;55800;54.272;18.558;2023-07-31T03:16:56;100228.31;;;14.97;72.07
68807;BME280;55800;54.272;18.558;2023-07-31T03:19:25;100218.69;;;14.93;70.51
68807;BME280;55800;54.272;18.558;2023-07-31T03:21:55;100210.16;;;14.87;72.00
68807;BME280;55800;54.272;18.558;2023-07-31T03:24:26;100226.22;;;14.88;71.10
68807;BME280;55800;54.272;18.558;2023-07-31T03:26:55;100216.97;;;14.92;71.89
68807;BME280;55800;54.272;18.558;2023-07-31T03:29:24;100221.59;;;14.90;70.45
68807;BME280;55800;54.272;18.558;2023-07-31T03:31:54;100225.22;;;14.89;70.83
68807;BME280;55800;54.272;18.558;2023-07-31T03:34:23;100225.34;;;14.88;70.82
68807;BME280;55800;54.272;18.558;2023-07-31T03:36:52;100222.06;;;14.82;69.87
68807;BME280;55800;54.272;18.558;2023-07-31T03:39:23;100226.41;;;14.85;71.97
68807;BME280;55800;54.272;18.558;2023-07-31T03:41:53;100227.72;;;14.92;72.45
68807;BME280;55800;54.272;18.558;2023-07-31T03:44:22;100231.47;;;14.90;71.22
68807;BME280;55800;54.272;18.558;2023-07-31T03:46:52;100228.38;;;14.96;71.80
68807;BME280;55800;54.272;18.558;2023-07-31T03:49:21;100235.00;;;15.04;72.93
68807;BME280;55800;54.272;18.558;2023-07-31T03:51:51;100232.88;;;15.09;72.20
68807;BME280;55800;54.272;18.558;2023-07-31T03:54:20;100229.66;;;15.17;71.68
68807;BME280;55800;54.272;18.558;2023-07-31T03:56:49;100225.78;;;15.21;73.59
68807;BME280;55800;54.272;18.558;2023-07-31T03:59:20;100233.38;;;15.28;74.14
68807;BME280;55800;54.272;18.558;2023-07-31T04:01:49;100234.00;;;15.32;73.88
68807;BME280;55800;54.272;18.558;2023-07-31T04:04:18;100240.38;;;15.31;74.74
68807;BME280;55800;54.272;18.558;2023-07-31T04:06:47;100231.00;;;15.36;74.58
68807;BME280;55800;54.272;18.558;2023-07-31T04:09:17;100234.94;;;15.45;74.93
68807;BME280;55800;54.272;18.558;2023-07-31T04:11:46;100235.72;;;15.47;74.56
68807;BME280;55800;54.272;18.558;2023-07-31T04:14:15;100227.19;;;15.53;73.96
68807;BME280;55800;54.272;18.558;2023-07-31T04:16:46;100230.22;;;15.61;74.80
68807;BME280;55800;54.272;18.558;2023-07-31T04:19:15;100234.56;;;15.63;74.16
68807;BME280;55800;54.272;18.558;2023-07-31T04:21:44;100226.72;;;15.73;75.23
68807;BME280;55800;54.272;18.558;2023-07-31T04:24:14;100237.19;;;15.78;74.48
68807;BME280;55800;54.272;18.558;2023-07-31T04:26:43;100226.91;;;15.83;73.52
68807;BME280;55800;54.272;18.558;2023-07-31T04:29:12;100231.88;;;15.89;74.59
68807;BME280;55800;54.272;18.558;2023-07-31T04:31:41;100226.19;;;15.93;74.52
68807;BME280;55800;54.272;18.558;2023-07-31T04:34:12;100225.84;;;15.98;74.02
68807;BME280;55800;54.272;18.558;2023-07-31T04:36:42;100230.94;;;16.02;74.77
68807;BME280;55800;54.272;18.558;2023-07-31T04:39:11;100229.63;;;16.08;74.01
68807;BME280;55800;54.272;18.558;2023-07-31T04:41:40;100234.69;;;16.12;74.28
68807;BME280;55800;54.272;18.558;2023-07-31T04:44:09;100227.28;;;16.16;74.31
68807;BME280;55800;54.272;18.558;2023-07-31T04:46:39;100227.03;;;16.19;74.42
68807;BME280;55800;54.272;18.558;2023-07-31T04:49:09;100228.66;;;16.21;74.58
68807;BME280;55800;54.272;18.558;2023-07-31T04:51:40;100226.38;;;16.28;74.19
68807;BME280;55800;54.272;18.558;2023-07-31T04:54:09;100237.94;;;16.30;74.33
68807;BME280;55800;54.272;18.558;2023-07-31T04:56:40;100230.16;;;16.38;73.71
68807;BME280;55800;54.272;18.558;2023-07-31T04:59:09;100230.69;;;16.43;73.70
68807;BME280;55800;54.272;18.558;2023-07-31T05:01:38;100236.41;;;16.51;73.41
68807;BME280;55800;54.272;18.558;2023-07-31T05:04:08;100241.38;;;16.57;73.89
68807;BME280;55800;54.272;18.558;2023-07-31T05:06:40;100236.84;;;16.58;73.76
68807;BME280;55800;54.272;18.558;2023-07-31T05:09:09;100238.66;;;16.57;73.82
68807;BME280;55800;54.272;18.558;2023-07-31T05:11:39;100229.16;;;16.64;73.47
68807;BME280;55800;54.272;18.558;2023-07-31T05:14:11;100239.50;;;16.70;73.35
68807;BME280;55800;54.272;18.558;2023-07-31T05:16:40;100228.25;;;16.76;73.61
68807;BME280;55800;54.272;18.558;2023-07-31T05:19:10;100237.53;;;16.85;72.59
68807;BME280;55800;54.272;18.558;2023-07-31T05:21:40;100234.50;;;16.89;72.64
68807;BME280;55800;54.272;18.558;2023-07-31T05:24:11;100228.84;;;16.92;72.67
68807;BME280;55800;54.272;18.558;2023-07-31T05:26:41;100242.66;;;17.00;72.26
68807;BME280;55800;54.272;18.558;2023-07-31T05:29:11;100237.56;;;17.08;71.95
68807;BME280;55800;54.272;18.558;2023-07-31T05:31:40;100238.16;;;17.12;72.58
68807;BME280;55800;54.272;18.558;2023-07-31T05:34:10;100235.47;;;17.12;72.29
68807;BME280;55800;54.272;18.558;2023-07-31T05:36:40;100241.28;;;17.18;71.81
68807;BME280;55800;54.272;18.558;2023-07-31T05:39:10;100244.50;;;17.24;71.82
68807;BME280;55800;54.272;18.558;2023-07-31T05:41:39;100233.44;;;17.27;71.24
68807;BME280;55800;54.272;18.558;2023-07-31T05:44:08;100242.31;;;17.29;71.11
68807;BME280;55800;54.272;18.558;2023-07-31T05:46:38;100233.97;;;17.32;71.51
68807;BME280;55800;54.272;18.558;2023-07-31T05:49:08;100237.31;;;17.35;71.15
68807;BME280;55800;54.272;18.558;2023-07-31T05:51:37;100238.56;;;17.42;70.84
68807;BME280;55800;54.272;18.558;2023-07-31T05:54:07;100237.91;;;17.51;70.26
68807;BME280;55800;54.272;18.558;2023-07-31T05:56:37;100242.44;;;17.51;70.26
68807;BME280;55800;54.272;18.558;2023-07-31T05:59:08;100248.47;;;17.54;70.14
68807;BME280;55800;54.272;18.558;2023-07-31T06:01:37;100247.16;;;17.60;69.96
68807;BME280;55800;54.272;18.558;2023-07-31T06:04:07;100243.25;;;17.64;69.45
68807;BME280;55800;54.272;18.558;2023-07-31T06:06:36;100245.81;;;17.65;69.08
68807;BME280;55800;54.272;18.558;2023-07-31T06:09:07;100236.34;;;17.71;68.93
68807;BME280;55800;54.272;18.558;2023-07-31T06:11:36;100250.16;;;17.79;69.44
68807;BME280;55800;54.272;18.558;2023-07-31T06:14:06;100247.22;;;17.82;68.59
68807;BME280;55800;54.272;18.558;2023-07-31T06:16:35;100243.06;;;17.89;68.77
68807;BME280;55800;54.272;18.558;2023-07-31T06:19:05;100247.13;;;17.94;68.35
68807;BME280;55800;54.272;18.558;2023-07-31T06:21:34;100251.22;;;18.00;68.65
68807;BME280;55800;54.272;18.558;2023-07-31T06:24:06;100246.06;;;18.08;68.06
68807;BME280;55800;54.272;18.558;2023-07-31T06:26:36;100248.41;;;18.13;67.89
68807;BME280;55800;54.272;18.558;2023-07-31T06:29:06;100251.34;;;18.21;67.57
68807;BME280;55800;54.272;18.558;2023-07-31T06:31:35;100255.41;;;18.26;66.74
68807;BME280;55800;54.272;18.558;2023-07-31T06:34:05;100250.50;;;18.31;66.32
68807;BME280;55800;54.272;18.558;2023-07-31T06:36:34;100250.28;;;18.34;65.84
68807;BME280;55800;54.272;18.558;2023-07-31T06:39:05;100246.56;;;18.35;65.72
68807;BME280;55800;54.272;18.558;2023-07-31T06:41:37;100240.66;;;18.41;66.28
68807;BME280;55800;54.272;18.558;2023-07-31T06:44:11;100249.50;;;18.43;65.41
68807;BME280;55800;54.272;18.558;2023-07-31T06:46:40;100256.22;;;18.50;65.00
68807;BME280;55800;54.272;18.558;2023-07-31T06:49:10;100257.44;;;18.57;64.92
68807;BME280;55800;54.272;18.558;2023-07-31T06:51:46;100257.81;;;18.64;64.80
68807;BME280;55800;54.272;18.558;2023-07-31T06:54:15;100263.56;;;18.70;64.99
68807;BME280;55800;54.272;18.558;2023-07-31T06:56:46;100255.72;;;18.79;65.21
68807;BME280;55800;54.272;18.558;2023-07-31T06:59:15;100256.66;;;18.89;65.14
68807;BME280;55800;54.272;18.558;2023-07-31T07:01:44;100262.19;;;18.98;65.39
68807;BME280;55800;54.272;18.558;2023-07-31T07:04:14;100263.03;;;19.10;65.09
68807;BME280;55800;54.272;18.558;2023-07-31T07:06:43;100262.53;;;19.16;64.33
68807;BME280;55800;54.272;18.558;2023-07-31T07:09:13;100255.84;;;19.20;63.27
68807;BME280;55800;54.272;18.558;2023-07-31T07:11:42;100262.16;;;19.20;62.47
68807;BME280;55800;54.272;18.558;2023-07-31T07:14:13;100259.06;;;19.25;63.04
68807;BME280;55800;54.272;18.558;2023-07-31T07:16:42;100263.97;;;19.31;62.72
68807;BME280;55800;54.272;18.558;2023-07-31T07:19:12;100262.13;;;19.42;63.23
68807;BME280;55800;54.272;18.558;2023-07-31T07:21:41;100254.44;;;19.48;62.40
68807;BME280;55800;54.272;18.558;2023-07-31T07:24:10;100251.50;;;19.51;62.64
68807;BME280;55800;54.272;18.558;2023-07-31T07:26:40;100254.25;;;19.60;62.64
68807;BME280;55800;54.272;18.558;2023-07-31T07:29:09;100255.72;;;19.64;61.73
68807;BME280;55800;54.272;18.558;2023-07-31T07:31:39;100254.59;;;19.67;60.74
68807;BME280;55800;54.272;18.558;2023-07-31T07:34:09;100255.97;;;19.72;61.48
68807;BME280;55800;54.272;18.558;2023-07-31T07:36:38;100241.88;;;19.78;60.79
68807;BME280;55800;54.272;18.558;2023-07-31T07:39:09;100244.63;;;19.88;61.73
68807;BME280;55800;54.272;18.558;2023-07-31T07:41:39;100240.66;;;19.92;60.38
68807;BME280;55800;54.272;18.558;2023-07-31T07:44:09;100250.88;;;19.99;61.00
68807;BME280;55800;54.272;18.558;2023-07-31T07:46:39;100250.47;;;20.04;59.28
68807;BME280;55800;54.272;18.558;2023-07-31T07:49:09;100252.31;;;20.03;59.62
68807;BME280;55800;54.272;18.558;2023-07-31T07:51:39;100251.06;;;20.07;59.08
68807;BME280;55800;54.272;18.558;2023-07-31T07:54:09;100242.38;;;20.13;59.65
68807;BME280;55800;54.272;18.558;2023-07-31T07:56:38;100242.84;;;20.18;59.24
68807;BME280;55800;54.272;18.558;2023-07-31T07:59:08;100244.19;;;20.24;58.85
68807;BME280;55800;54.272;18.558;2023-07-31T08:01:37;100241.06;;;20.29;58.79
68807;BME280;55800;54.272;18.558;2023-07-31T08:04:08;100236.09;;;20.34;58.22
68807;BME280;55800;54.272;18.558;2023-07-31T08:06:38;100233.69;;;20.40;57.74
68807;BME280;55800;54.272;18.558;2023-07-31T08:09:08;100231.16;;;20.48;58.12
68807;BME280;55800;54.272;18.558;2023-07-31T08:11:40;100233.91;;;20.58;58.19
68807;BME280;55800;54.272;18.558;2023-07-31T08:14:09;100232.94;;;20.59;56.21
68807;BME280;55800;54.272;18.558;2023-07-31T08:16:38;100227.94;;;20.64;57.26
68807;BME280;55800;54.272;18.558;2023-07-31T08:19:09;100235.81;;;20.67;56.60
68807;BME280;55800;54.272;18.558;2023-07-31T08:21:39;100232.94;;;20.68;56.14
68807;BME280;55800;54.272;18.558;2023-07-31T08:24:08;100240.44;;;20.76;57.05
68807;BME280;55800;54.272;18.558;2023-07-31T08:26:38;100231.56;;;20.83;56.61
68807;BME280;55800;54.272;18.558;2023-07-31T08:29:08;100237.59;;;20.87;55.65
68807;BME280;55800;54.272;18.558;2023-07-31T08:31:37;100235.47;;;20.90;55.98
68807;BME280;55800;54.272;18.558;2023-07-31T08:34:06;100226.44;;;20.90;54.96
68807;BME280;55800;54.272;18.558;2023-07-31T08:36:37;100239.88;;;20.91;54.37
68807;BME280;55800;54.272;18.558;2023-07-31T08:39:07;100232.59;;;20.82;53.95
68807;BME280;55800;54.272;18.558;2023-07-31T08:41:38;100230.88;;;20.91;54.78
68807;BME280;55800;54.272;18.558;2023-07-31T08:44:08;100226.31;;;20.91;53.82
68807;BME280;55800;54.272;18.558;2023-07-31T08:46:40;100222.03;;;20.98;55.22
68807;BME280;55800;54.272;18.558;2023-07-31T08:49:11;100222.53;;;21.04;54.57
68807;BME280;55800;54.272;18.558;2023-07-31T08:51:42;100217.91;;;21.04;54.83
68807;BME280;55800;54.272;18.558;2023-07-31T08:54:13;100221.25;;;21.08;53.83
68807;BME280;55800;54.272;18.558;2023-07-31T08:56:45;100217.09;;;21.04;52.87
68807;BME280;55800;54.272;18.558;2023-07-31T08:59:18;100219.34;;;21.08;53.35
68807;BME280;55800;54.272;18.558;2023-07-31T09:01:52;100222.75;;;21.00;52.20
68807;BME280;55800;54.272;18.558;2023-07-31T09:04:24;100221.66;;;21.03;52.75
68807;BME280;55800;54.272;18.558;2023-07-31T09:06:59;100209.34;;;21.09;52.66
68807;BME280;55800;54.272;18.558;2023-07-31T09:09:29;100208.22;;;21.11;53.37
68807;BME280;55800;54.272;18.558;2023-07-31T09:11:58;100210.22;;;21.19;54.05
68807;BME280;55800;54.272;18.558;2023-07-31T09:14:28;100213.22;;;21.25;53.50
68807;BME280;55800;54.272;18.558;2023-07-31T09:16:58;100207.53;;;21.28;52.47
68807;BME280;55800;54.272;18.558;2023-07-31T09:19:29;100198.22;;;21.40;54.30
68807;BME280;55800;54.272;18.558;2023-07-31T09:22:00;100205.09;;;21.54;54.85
68807;BME280;55800;54.272;18.558;2023-07-31T09:24:32;100205.66;;;21.57;52.45
68807;BME280;55800;54.272;18.558;2023-07-31T09:27:02;100205.97;;;21.54;51.65
68807;BME280;55800;54.272;18.558;2023-07-31T09:29:36;100205.22;;;21.62;52.49
68807;BME280;55800;54.272;18.558;2023-07-31T09:32:05;100210.09;;;21.68;52.33
68807;BME280;55800;54.272;18.558;2023-07-31T09:34:45;100193.59;;;21.69;52.20
68807;BME280;55800;54.272;18.558;2023-07-31T09:37:15;100196.78;;;21.65;50.69
68807;BME280;55800;54.272;18.558;2023-07-31T09:39:49;100201.22;;;21.66;51.55
68807;BME280;55800;54.272;18.558;2023-07-31T09:42:26;100195.34;;;21.70;51.66
68807;BME280;55800;54.272;18.558;2023-07-31T09:45:07;100200.50;;;21.64;51.17
68807;BME280;55800;54.272;18.558;2023-07-31T09:47:37;100198.91;;;21.61;49.36
68807;BME280;55800;54.272;18.558;2023-07-31T09:50:08;100202.22;;;21.65;50.56
68807;BME280;55800;54.272;18.558;2023-07-31T09:52:40;100198.78;;;21.72;51.00
68807;BME280;55800;54.272;18.558;2023-07-31T09:55:10;100190.75;;;21.71;50.98
68807;BME280;55800;54.272;18.558;2023-07-31T09:57:41;100183.47;;;21.71;51.66
68807;BME280;55800;54.272;18.558;2023-07-31T10:00:12;100177.13;;;21.81;52.26
68807;BME280;55800;54.272;18.558;2023-07-31T10:02:41;100176.00;;;21.83;51.78
68807;BME280;55800;54.272;18.558;2023-07-31T10:05:15;100179.28;;;21.87;52.53
68807;BME280;55800;54.272;18.558;2023-07-31T10:07:54;100162.69;;;21.90;51.28
68807;BME280;55800;54.272;18.558;2023-07-31T10:10:24;100167.53;;;21.96;51.94
68807;BME280;55800;54.272;18.558;2023-07-31T10:12:55;100172.09;;;22.05;51.86
68807;BME280;55800;54.272;18.558;2023-07-31T10:15:26;100157.19;;;22.09;51.45
68807;BME280;55800;54.272;18.558;2023-07-31T10:17:58;100165.19;;;22.20;52.69
68807;BME280;55800;54.272;18.558;2023-07-31T10:20:28;100155.84;;;22.22;50.47
68807;BME280;55800;54.272;18.558;2023-07-31T10:22:59;100163.72;;;22.25;50.78
68807;BME280;55800;54.272;18.558;2023-07-31T10:25:29;100156.25;;;22.27;49.22
68807;BME280;55800;54.272;18.558;2023-07-31T10:27:59;100163.25;;;22.30;49.36
68807;BME280;55800;54.272;18.558;2023-07-31T10:30:30;100159.66;;;22.39;49.83
68807;BME280;55800;54.272;18.558;2023-07-31T10:33:02;100153.59;;;22.45;49.86
68807;BME280;55800;54.272;18.558;2023-07-31T10:35:32;100153.19;;;22.40;48.38
68807;BME280;55800;54.272;18.558;2023-07-31T10:38:11;100159.19;;;22.43;48.51
68807;BME280;55800;54.272;18.558;2023-07-31T10:40:41;100147.81;;;22.48;48.09
68807;BME280;55800;54.272;18.558;2023-07-31T10:43:24;100161.00;;;22.62;49.11
68807;BME280;55800;54.272;18.558;2023-07-31T10:45:55;100157.75;;;22.76;48.91
68807;BME280;55800;54.272;18.558;2023-07-31T10:48:24;100158.53;;;22.86;48.83
68807;BME280;55800;54.272;18.558;2023-07-31T10:50:56;100157.63;;;22.95;49.90
68807;BME280;55800;54.272;18.558;2023-07-31T10:53:28;100155.69;;;23.05;50.54
68807;BME280;55800;54.272;18.558;2023-07-31T10:55:59;100154.69;;;23.06;48.46
68807;BME280;55800;54.272;18.558;2023-07-31T10:58:29;100155.22;;;23.10;49.19
68807;BME280;55800;54.272;18.558;2023-07-31T11:01:00;100149.63;;;23.11;48.77
68807;BME280;55800;54.272;18.558;2023-07-31T11:03:45;100144.88;;;23.13;48.67
68807;BME280;55800;54.272;18.558;2023-07-31T11:06:15;100135.59;;;23.24;49.70
68807;BME280;55800;54.272;18.558;2023-07-31T11:08:49;100143.78;;;23.24;47.98
68807;BME280;55800;54.272;18.558;2023-07-31T11:11:20;100142.13;;;23.31;48.98
68807;BME280;55800;54.272;18.558;2023-07-31T11:13:51;100143.09;;;23.40;49.00
68807;BME280;55800;54.272;18.558;2023-07-31T11:16:22;100143.09;;;23.40;47.48
68807;BME280;55800;54.272;18.558;2023-07-31T11:18:53;100145.75;;;23.49;48.77
68807;BME280;55800;54.272;18.558;2023-07-31T11:21:25;100154.28;;;23.54;48.66
68807;BME280;55800;54.272;18.558;2023-07-31T11:23:57;100147.38;;;23.60;48.76
68807;BME280;55800;54.272;18.558;2023-07-31T11:26:27;100152.88;;;23.68;49.08
68807;BME280;55800;54.272;18.558;2023-07-31T11:28:58;100146.44;;;23.69;48.73
68807;BME280;55800;54.272;18.558;2023-07-31T11:31:28;100156.47;;;23.68;48.27
68807;BME280;55800;54.272;18.558;2023-07-31T11:34:07;100158.75;;;23.73;48.37
68807;BME280;55800;54.272;18.558;2023-07-31T11:36:37;100145.69;;;23.67;47.46
68807;BME280;55800;54.272;18.558;2023-07-31T11:39:08;100145.63;;;23.59;46.89
68807;BME280;55800;54.272;18.558;2023-07-31T11:41:41;100148.13;;;23.52;47.60
68807;BME280;55800;54.272;18.558;2023-07-31T11:44:10;100146.44;;;23.51;47.90
68807;BME280;55800;54.272;18.558;2023-07-31T11:46:57;100133.66;;;23.52;47.99
68807;BME280;55800;54.272;18.558;2023-07-31T11:49:26;100128.25;;;23.60;48.01
68807;BME280;55800;54.272;18.558;2023-07-31T11:51:56;100132.69;;;23.61;48.58
68807;BME280;55800;54.272;18.558;2023-07-31T11:54:27;100131.34;;;23.65;48.57
68807;BME280;55800;54.272;18.558;2023-07-31T11:56:56;100125.34;;;23.79;48.65
68807;BME280;55800;54.272;18.558;2023-07-31T11:59:28;100128.13;;;23.87;49.33
68807;BME280;55800;54.272;18.558;2023-07-31T12:01:58;100122.38;;;23.98;48.82
68807;BME280;55800;54.272;18.558;2023-07-31T12:04:28;100121.44;;;24.07;48.58
68807;BME280;55800;54.272;18.558;2023-07-31T12:06:59;100132.75;;;24.12;48.61
68807;BME280;55800;54.272;18.558;2023-07-31T12:09:30;100126.09;;;24.15;48.65
68807;BME280;55800;54.272;18.558;2023-07-31T12:12:00;100125.88;;;24.08;48.38
68807;BME280;55800;54.272;18.558;2023-07-31T12:14:29;100122.16;;;24.09;48.76
68807;BME280;55800;54.272;18.558;2023-07-31T12:17:00;100125.06;;;24.16;48.99
68807;BME280;55800;54.272;18.558;2023-07-31T12:19:32;100117.06;;;24.22;49.17
68807;BME280;55800;54.272;18.558;2023-07-31T12:22:11;100114.81;;;24.18;48.69
68807;BME280;55800;54.272;18.558;2023-07-31T12:24:43;100114.00;;;24.17;48.41
68807;BME280;55800;54.272;18.558;2023-07-31T12:27:14;100118.56;;;24.09;48.38
68807;BME280;55800;54.272;18.558;2023-07-31T12:29:46;100114.09;;;24.08;48.64
68807;BME280;55800;54.272;18.558;2023-07-31T12:32:22;100116.88;;;24.16;49.12
68807;BME280;55800;54.272;18.558;2023-07-31T12:34:52;100118.59;;;23.91;47.25
68807;BME280;55800;54.272;18.558;2023-07-31T12:37:21;100115.16;;;23.89;48.06
68807;BME280;55800;54.272;18.558;2023-07-31T12:39:52;100113.28;;;23.89;48.75
68807;BME280;55800;54.272;18.558;2023-07-31T12:42:21;100114.84;;;23.92;48.17
68807;BME280;55800;54.272;18.558;2023-07-31T12:44:51;100108.75;;;23.98;48.75
68807;BME280;55800;54.272;18.558;2023-07-31T12:47:20;100104.75;;;23.92;48.26
68807;BME280;55800;54.272;18.558;2023-07-31T12:49:49;100109.31;;;23.84;48.34
68807;BME280;55800;54.272;18.558;2023-07-31T12:52:19;100102.81;;;23.77;48.23
68807;BME280;55800;54.272;18.558;2023-07-31T12:54:48;100102.75;;;23.69;48.52
68807;BME280;55800;54.272;18.558;2023-07-31T12:57:19;100097.38;;;23.59;48.12